sensor_id;sensor_type;location;lat;lon;timestamp;P1;durP1;ratioP1;P2;durP2;ratioP2
11962;SDS011;62678;52.130;5.584;2023-04-26T00:01:55;16.10;;;7.47;;
11962;SDS011;62678;52.130;5.584;2023-04-26T00:04:22;17.20;;;6.90;;
11962;SDS011;62678;52.130;5.584;2023-04-26T00:06:49;12.90;;;6.90;;
11962;SDS011;62678;52.130;5.584;2023-04-26T00:09:16;10.65;;;6.85;;
11962;SDS011;62678;52.130;5.584;2023-04-26T00:11:45;13.73;;;6.88;;
11962;SDS011;62678;52.130;5.584;2023-04-26T00:14:12;14.48;;;7.22;;
11962;SDS011;62678;52.130;5.584;2023-04-26T00:16:39;13.55;;;6.80;;
11962;SDS011;62678;52.130;5.584;2023-04-26T00:19:05;12.32;;;7.32;;
11962;SDS011;62678;52.130;5.584;2023-04-26T00:21:34;12.85;;;6.20;;
11962;SDS011;62678;52.130;5.584;2023-04-26T00:24:02;14.80;;;7.60;;
11962;SDS011;62678;52.130;5.584;2023-04-26T00:26:29;17.85;;;7.95;;
11962;SDS011;62678;52.130;5.584;2023-04-26T00:28:57;15.73;;;7.28;;
11962;SDS011;62678;52.130;5.584;2023-04-26T00:31:24;14.88;;;8.90;;
11962;SDS011;62678;52.130;5.584;2023-04-26T00:33:51;22.50;;;9.10;;
11962;SDS011;62678;52.130;5.584;2023-04-26T00:36:18;18.35;;;8.60;;
11962;SDS011;62678;52.130;5.584;2023-04-26T00:38:45;14.20;;;8.55;;
11962;SDS011;62678;52.130;5.584;2023-04-26T00:41:12;16.95;;;9.07;;
11962;SDS011;62678;52.130;5.584;2023-04-26T00:43:39;17.48;;;8.82;;
11962;SDS011;62678;52.130;5.584;2023-04-26T00:46:07;19.90;;;8.85;;
11962;SDS011;62678;52.130;5.584;2023-04-26T00:48:35;16.92;;;9.40;;
11962;SDS011;62678;52.130;5.584;2023-04-26T00:51:02;18.58;;;9.63;;
11962;SDS011;62678;52.130;5.584;2023-04-26T00:53:30;18.70;;;10.00;;
11962;SDS011;62678;52.130;5.584;2023-04-26T00:55:59;17.75;;;10.32;;
11962;SDS011;62678;52.130;5.584;2023-04-26T00:58:27;20.42;;;11.07;;
11962;SDS011;62678;52.130;5.584;2023-04-26T01:00:55;22.52;;;11.27;;
11962;SDS011;62678;52.130;5.584;2023-04-26T01:03:23;21.60;;;11.13;;
11962;SDS011;62678;52.130;5.584;2023-04-26T01:05:50;16.13;;;10.35;;
11962;SDS011;62678;52.130;5.584;2023-04-26T01:08:18;21.23;;;10.60;;
11962;SDS011;62678;52.130;5.584;2023-04-26T01:10:45;20.38;;;10.75;;
11962;SDS011;62678;52.130;5.584;2023-04-26T01:13:13;19.83;;;9.65;;
11962;SDS011;62678;52.130;5.584;2023-04-26T01:15:41;19.17;;;10.02;;
11962;SDS011;62678;52.130;5.584;2023-04-26T01:18:09;20.60;;;10.50;;
11962;SDS011;62678;52.130;5.584;2023-04-26T01:20:37;20.65;;;9.95;;
11962;SDS011;62678;52.130;5.584;2023-04-26T01:23:07;17.73;;;9.75;;
11962;SDS011;62678;52.130;5.584;2023-04-26T01:25:34;22.38;;;11.38;;
11962;SDS011;62678;52.130;5.584;2023-04-26T01:28:01;17.80;;;9.70;;
11962;SDS011;62678;52.130;5.584;2023-04-26T01:30:28;19.00;;;10.52;;
11962;SDS011;62678;52.130;5.584;2023-04-26T01:32:55;22.40;;;11.60;;
11962;SDS011;62678;52.130;5.584;2023-04-26T01:35:22;22.20;;;10.05;;
11962;SDS011;62678;52.130;5.584;2023-04-26T01:37:49;21.95;;;10.80;;
11962;SDS011;62678;52.130;5.584;2023-04-26T01:40:17;20.20;;;10.48;;
11962;SDS011;62678;52.130;5.584;2023-04-26T01:42:44;19.75;;;9.38;;
11962;SDS011;62678;52.130;5.584;2023-04-26T01:45:11;21.95;;;11.52;;
11962;SDS011;62678;52.130;5.584;2023-04-26T01:47:39;20.67;;;11.38;;
11962;SDS011;62678;52.130;5.584;2023-04-26T01:50:06;20.48;;;10.13;;
11962;SDS011;62678;52.130;5.584;2023-04-26T01:52:34;19.88;;;10.68;;
11962;SDS011;62678;52.130;5.584;2023-04-26T01:55:01;20.17;;;11.35;;
11962;SDS011;62678;52.130;5.584;2023-04-26T01:57:29;21.08;;;10.65;;
11962;SDS011;62678;52.130;5.584;2023-04-26T01:59:56;23.80;;;10.20;;
11962;SDS011;62678;52.130;5.584;2023-04-26T02:02:23;21.75;;;10.45;;
11962;SDS011;62678;52.130;5.584;2023-04-26T02:04:50;18.20;;;9.90;;
11962;SDS011;62678;52.130;5.584;2023-04-26T02:07:17;21.55;;;10.25;;
11962;SDS011;62678;52.130;5.584;2023-04-26T02:09:44;21.83;;;10.02;;
11962;SDS011;62678;52.130;5.584;2023-04-26T02:12:11;19.85;;;10.32;;
11962;SDS011;62678;52.130;5.584;2023-04-26T02:14:40;15.85;;;10.35;;
11962;SDS011;62678;52.130;5.584;2023-04-26T02:17:06;22.83;;;10.20;;
11962;SDS011;62678;52.130;5.584;2023-04-26T02:19:35;19.38;;;10.57;;
11962;SDS011;62678;52.130;5.584;2023-04-26T02:22:03;17.80;;;10.02;;
11962;SDS011;62678;52.130;5.584;2023-04-26T02:24:32;19.27;;;11.10;;
11962;SDS011;62678;52.130;5.584;2023-04-26T02:26:58;22.02;;;11.48;;
11962;SDS011;62678;52.130;5.584;2023-04-26T02:29:28;20.23;;;11.02;;
11962;SDS011;62678;52.130;5.584;2023-04-26T02:31:56;24.88;;;11.63;;
11962;SDS011;62678;52.130;5.584;2023-04-26T02:34:23;23.75;;;12.35;;
11962;SDS011;62678;52.130;5.584;2023-04-26T02:36:50;30.27;;;12.40;;
11962;SDS011;62678;52.130;5.584;2023-04-26T02:39:16;17.63;;;11.25;;
11962;SDS011;62678;52.130;5.584;2023-04-26T02:41:43;25.38;;;12.13;;
11962;SDS011;62678;52.130;5.584;2023-04-26T02:44:10;25.13;;;11.75;;
11962;SDS011;62678;52.130;5.584;2023-04-26T02:46:37;19.60;;;11.95;;
11962;SDS011;62678;52.130;5.584;2023-04-26T02:49:05;24.73;;;11.82;;
11962;SDS011;62678;52.130;5.584;2023-04-26T02:51:32;24.52;;;12.35;;
11962;SDS011;62678;52.130;5.584;2023-04-26T02:53:59;24.60;;;11.52;;
11962;SDS011;62678;52.130;5.584;2023-04-26T02:56:27;26.60;;;12.00;;
11962;SDS011;62678;52.130;5.584;2023-04-26T02:58:53;25.75;;;13.35;;
11962;SDS011;62678;52.130;5.584;2023-04-26T03:01:20;23.02;;;12.48;;
11962;SDS011;62678;52.130;5.584;2023-04-26T03:03:47;23.73;;;11.88;;
11962;SDS011;62678;52.130;5.584;2023-04-26T03:06:16;23.00;;;12.63;;
11962;SDS011;62678;52.130;5.584;2023-04-26T03:08:42;26.95;;;12.60;;
11962;SDS011;62678;52.130;5.584;2023-04-26T03:11:09;22.52;;;11.80;;
11962;SDS011;62678;52.130;5.584;2023-04-26T03:13:36;26.90;;;13.43;;
11962;SDS011;62678;52.130;5.584;2023-04-26T03:16:03;31.30;;;13.25;;
11962;SDS011;62678;52.130;5.584;2023-04-26T03:18:30;30.75;;;13.57;;
11962;SDS011;62678;52.130;5.584;2023-04-26T03:21:00;24.92;;;14.18;;
11962;SDS011;62678;52.130;5.584;2023-04-26T03:23:28;29.27;;;14.82;;
11962;SDS011;62678;52.130;5.584;2023-04-26T03:25:55;27.85;;;13.77;;
11962;SDS011;62678;52.130;5.584;2023-04-26T03:28:22;32.72;;;13.43;;
11962;SDS011;62678;52.130;5.584;2023-04-26T03:30:49;35.25;;;13.90;;
11962;SDS011;62678;52.130;5.584;2023-04-26T03:33:16;30.27;;;13.85;;
11962;SDS011;62678;52.130;5.584;2023-04-26T03:35:43;31.15;;;14.80;;
11962;SDS011;62678;52.130;5.584;2023-04-26T03:38:10;36.50;;;14.98;;
11962;SDS011;62678;52.130;5.584;2023-04-26T03:40:38;30.65;;;14.15;;
11962;SDS011;62678;52.130;5.584;2023-04-26T03:43:05;32.17;;;15.43;;
11962;SDS011;62678;52.130;5.584;2023-04-26T03:45:32;25.75;;;14.65;;
11962;SDS011;62678;52.130;5.584;2023-04-26T03:47:59;28.10;;;14.15;;
11962;SDS011;62678;52.130;5.584;2023-04-26T03:50:25;31.17;;;14.38;;
11962;SDS011;62678;52.130;5.584;2023-04-26T03:52:52;29.92;;;14.68;;
11962;SDS011;62678;52.130;5.584;2023-04-26T03:55:19;29.95;;;15.02;;
11962;SDS011;62678;52.130;5.584;2023-04-26T03:57:47;33.05;;;14.70;;
11962;SDS011;62678;52.130;5.584;2023-04-26T04:00:14;30.90;;;15.35;;
11962;SDS011;62678;52.130;5.584;2023-04-26T04:02:41;32.83;;;14.80;;
11962;SDS011;62678;52.130;5.584;2023-04-26T04:05:09;35.92;;;15.38;;
11962;SDS011;62678;52.130;5.584;2023-04-26T04:07:36;30.25;;;14.98;;
11962;SDS011;62678;52.130;5.584;2023-04-26T04:10:03;31.00;;;15.20;;
11962;SDS011;62678;52.130;5.584;2023-04-26T04:12:31;37.90;;;15.43;;
11962;SDS011;62678;52.130;5.584;2023-04-26T04:14:59;29.48;;;14.93;;
11962;SDS011;62678;52.130;5.584;2023-04-26T04:17:26;30.75;;;14.55;;
11962;SDS011;62678;52.130;5.584;2023-04-26T04:19:53;33.78;;;15.30;;
11962;SDS011;62678;52.130;5.584;2023-04-26T04:22:20;40.33;;;16.73;;
11962;SDS011;62678;52.130;5.584;2023-04-26T04:24:47;39.03;;;15.55;;
11962;SDS011;62678;52.130;5.584;2023-04-26T04:27:14;31.48;;;15.30;;
11962;SDS011;62678;52.130;5.584;2023-04-26T04:29:41;34.35;;;15.38;;
11962;SDS011;62678;52.130;5.584;2023-04-26T04:32:09;32.88;;;15.10;;
11962;SDS011;62678;52.130;5.584;2023-04-26T04:34:37;38.58;;;16.38;;
11962;SDS011;62678;52.130;5.584;2023-04-26T04:37:05;33.03;;;15.63;;
11962;SDS011;62678;52.130;5.584;2023-04-26T04:39:32;32.10;;;15.07;;
11962;SDS011;62678;52.130;5.584;2023-04-26T04:41:59;34.47;;;15.45;;
11962;SDS011;62678;52.130;5.584;2023-04-26T04:44:26;37.72;;;16.35;;
11962;SDS011;62678;52.130;5.584;2023-04-26T04:46:53;39.63;;;15.95;;
11962;SDS011;62678;52.130;5.584;2023-04-26T04:49:21;38.67;;;16.75;;
11962;SDS011;62678;52.130;5.584;2023-04-26T04:51:49;35.33;;;15.93;;
11962;SDS011;62678;52.130;5.584;2023-04-26T04:54:17;30.88;;;15.07;;
11962;SDS011;62678;52.130;5.584;2023-04-26T04:56:44;32.40;;;16.73;;
11962;SDS011;62678;52.130;5.584;2023-04-26T04:59:11;33.17;;;15.98;;
11962;SDS011;62678;52.130;5.584;2023-04-26T05:01:38;34.65;;;15.52;;
11962;SDS011;62678;52.130;5.584;2023-04-26T05:04:05;31.35;;;14.93;;
11962;SDS011;62678;52.130;5.584;2023-04-26T05:06:33;31.52;;;16.02;;
11962;SDS011;62678;52.130;5.584;2023-04-26T05:09:00;37.63;;;15.85;;
11962;SDS011;62678;52.130;5.584;2023-04-26T05:11:29;31.15;;;15.55;;
11962;SDS011;62678;52.130;5.584;2023-04-26T05:13:56;29.05;;;14.50;;
11962;SDS011;62678;52.130;5.584;2023-04-26T05:16:23;31.85;;;15.90;;
11962;SDS011;62678;52.130;5.584;2023-04-26T05:18:50;27.15;;;15.23;;
11962;SDS011;62678;52.130;5.584;2023-04-26T05:21:17;38.78;;;16.27;;
11962;SDS011;62678;52.130;5.584;2023-04-26T05:23:45;37.42;;;15.77;;
11962;SDS011;62678;52.130;5.584;2023-04-26T05:26:13;33.72;;;15.68;;
11962;SDS011;62678;52.130;5.584;2023-04-26T05:28:41;31.27;;;15.93;;
11962;SDS011;62678;52.130;5.584;2023-04-26T05:31:08;30.45;;;14.95;;
11962;SDS011;62678;52.130;5.584;2023-04-26T05:33:35;29.92;;;14.30;;
11962;SDS011;62678;52.130;5.584;2023-04-26T05:36:02;29.60;;;14.52;;
11962;SDS011;62678;52.130;5.584;2023-04-26T05:38:30;30.63;;;16.17;;
11962;SDS011;62678;52.130;5.584;2023-04-26T05:40:58;30.55;;;15.18;;
11962;SDS011;62678;52.130;5.584;2023-04-26T05:43:24;36.75;;;15.10;;
11962;SDS011;62678;52.130;5.584;2023-04-26T05:45:52;27.80;;;15.45;;
11962;SDS011;62678;52.130;5.584;2023-04-26T05:48:20;31.02;;;14.90;;
11962;SDS011;62678;52.130;5.584;2023-04-26T05:50:47;29.50;;;14.98;;
11962;SDS011;62678;52.130;5.584;2023-04-26T05:53:16;31.50;;;15.10;;
11962;SDS011;62678;52.130;5.584;2023-04-26T05:55:43;26.42;;;13.18;;
11962;SDS011;62678;52.130;5.584;2023-04-26T05:58:11;29.25;;;13.90;;
11962;SDS011;62678;52.130;5.584;2023-04-26T06:00:38;25.58;;;12.80;;
11962;SDS011;62678;52.130;5.584;2023-04-26T06:03:06;27.38;;;12.38;;
11962;SDS011;62678;52.130;5.584;2023-04-26T06:05:34;23.48;;;11.50;;
11962;SDS011;62678;52.130;5.584;2023-04-26T06:08:02;22.95;;;11.50;;
11962;SDS011;62678;52.130;5.584;2023-04-26T06:10:29;18.55;;;10.30;;
11962;SDS011;62678;52.130;5.584;2023-04-26T06:12:56;19.00;;;9.75;;
11962;SDS011;62678;52.130;5.584;2023-04-26T06:15:25;17.92;;;10.23;;
11962;SDS011;62678;52.130;5.584;2023-04-26T06:17:52;24.67;;;9.38;;
11962;SDS011;62678;52.130;5.584;2023-04-26T06:20:20;16.20;;;9.02;;
11962;SDS011;62678;52.130;5.584;2023-04-26T06:22:47;23.48;;;9.57;;
11962;SDS011;62678;52.130;5.584;2023-04-26T06:25:15;19.67;;;7.38;;
11962;SDS011;62678;52.130;5.584;2023-04-26T06:27:42;19.17;;;8.02;;
11962;SDS011;62678;52.130;5.584;2023-04-26T06:30:09;14.85;;;7.65;;
11962;SDS011;62678;52.130;5.584;2023-04-26T06:32:39;13.75;;;7.97;;
11962;SDS011;62678;52.130;5.584;2023-04-26T06:35:07;17.20;;;8.00;;
11962;SDS011;62678;52.130;5.584;2023-04-26T06:37:35;15.00;;;8.70;;
11962;SDS011;62678;52.130;5.584;2023-04-26T06:40:04;14.02;;;7.97;;
11962;SDS011;62678;52.130;5.584;2023-04-26T06:42:32;17.17;;;7.40;;
11962;SDS011;62678;52.130;5.584;2023-04-26T06:45:00;13.52;;;7.38;;
11962;SDS011;62678;52.130;5.584;2023-04-26T06:47:28;13.00;;;7.55;;
11962;SDS011;62678;52.130;5.584;2023-04-26T06:49:56;13.48;;;7.25;;
11962;SDS011;62678;52.130;5.584;2023-04-26T06:52:24;13.38;;;6.72;;
11962;SDS011;62678;52.130;5.584;2023-04-26T06:54:54;18.08;;;7.55;;
11962;SDS011;62678;52.130;5.584;2023-04-26T06:57:21;15.93;;;7.15;;
11962;SDS011;62678;52.130;5.584;2023-04-26T06:59:48;13.52;;;6.32;;
11962;SDS011;62678;52.130;5.584;2023-04-26T07:02:16;13.23;;;7.00;;
11962;SDS011;62678;52.130;5.584;2023-04-26T07:04:43;13.63;;;6.30;;
11962;SDS011;62678;52.130;5.584;2023-04-26T07:07:12;12.43;;;6.43;;
11962;SDS011;62678;52.130;5.584;2023-04-26T07:09:40;13.23;;;6.40;;
11962;SDS011;62678;52.130;5.584;2023-04-26T07:12:07;12.80;;;6.25;;
11962;SDS011;62678;52.130;5.584;2023-04-26T07:14:36;9.98;;;6.15;;
11962;SDS011;62678;52.130;5.584;2023-04-26T07:17:04;9.90;;;4.97;;
11962;SDS011;62678;52.130;5.584;2023-04-26T07:19:31;13.90;;;5.03;;
11962;SDS011;62678;52.130;5.584;2023-04-26T07:21:58;12.27;;;5.32;;
11962;SDS011;62678;52.130;5.584;2023-04-26T07:24:26;10.18;;;4.70;;
11962;SDS011;62678;52.130;5.584;2023-04-26T07:26:53;18.27;;;5.15;;
11962;SDS011;62678;52.130;5.584;2023-04-26T07:29:20;10.27;;;4.60;;
11962;SDS011;62678;52.130;5.584;2023-04-26T07:31:47;7.43;;;4.10;;
11962;SDS011;62678;52.130;5.584;2023-04-26T07:34:14;10.20;;;4.45;;
11962;SDS011;62678;52.130;5.584;2023-04-26T07:36:41;11.65;;;5.18;;
11962;SDS011;62678;52.130;5.584;2023-04-26T07:39:08;13.52;;;4.55;;
11962;SDS011;62678;52.130;5.584;2023-04-26T07:41:37;9.15;;;4.90;;
11962;SDS011;62678;52.130;5.584;2023-04-26T07:44:03;7.35;;;4.07;;
11962;SDS011;62678;52.130;5.584;2023-04-26T07:46:31;7.65;;;4.32;;
11962;SDS011;62678;52.130;5.584;2023-04-26T07:48:58;9.48;;;4.22;;
11962;SDS011;62678;52.130;5.584;2023-04-26T07:51:25;9.43;;;4.20;;
11962;SDS011;62678;52.130;5.584;2023-04-26T07:53:52;8.73;;;4.03;;
11962;SDS011;62678;52.130;5.584;2023-04-26T07:56:20;11.38;;;4.25;;
11962;SDS011;62678;52.130;5.584;2023-04-26T07:58:49;5.28;;;3.70;;
11962;SDS011;62678;52.130;5.584;2023-04-26T08:01:16;7.15;;;3.40;;
11962;SDS011;62678;52.130;5.584;2023-04-26T08:03:43;6.65;;;3.35;;
11962;SDS011;62678;52.130;5.584;2023-04-26T08:06:10;8.90;;;2.92;;
11962;SDS011;62678;52.130;5.584;2023-04-26T08:08:36;7.22;;;2.75;;
11962;SDS011;62678;52.130;5.584;2023-04-26T08:11:08;8.07;;;2.90;;
11962;SDS011;62678;52.130;5.584;2023-04-26T08:13:35;8.90;;;2.45;;
11962;SDS011;62678;52.130;5.584;2023-04-26T08:16:04;5.72;;;3.50;;
11962;SDS011;62678;52.130;5.584;2023-04-26T08:18:31;10.32;;;4.95;;
11962;SDS011;62678;52.130;5.584;2023-04-26T08:20:58;7.55;;;2.80;;
11962;SDS011;62678;52.130;5.584;2023-04-26T08:23:25;8.75;;;1.60;;
11962;SDS011;62678;52.130;5.584;2023-04-26T08:25:53;12.07;;;1.90;;
11962;SDS011;62678;52.130;5.584;2023-04-26T08:28:19;5.57;;;1.63;;
11962;SDS011;62678;52.130;5.584;2023-04-26T08:30:46;4.90;;;1.60;;
11962;SDS011;62678;52.130;5.584;2023-04-26T08:33:14;5.90;;;1.48;;
11962;SDS011;62678;52.130;5.584;2023-04-26T08:35:43;2.65;;;1.27;;
11962;SDS011;62678;52.130;5.584;2023-04-26T08:38:10;8.15;;;2.22;;
11962;SDS011;62678;52.130;5.584;2023-04-26T08:40:37;3.53;;;1.55;;
11962;SDS011;62678;52.130;5.584;2023-04-26T08:43:07;4.05;;;1.50;;
11962;SDS011;62678;52.130;5.584;2023-04-26T08:45:36;6.05;;;1.73;;
11962;SDS011;62678;52.130;5.584;2023-04-26T08:48:06;6.88;;;1.55;;
11962;SDS011;62678;52.130;5.584;2023-04-26T08:50:40;7.53;;;1.73;;
11962;SDS011;62678;52.130;5.584;2023-04-26T08:53:11;6.70;;;2.03;;
11962;SDS011;62678;52.130;5.584;2023-04-26T08:55:41;3.30;;;1.48;;
11962;SDS011;62678;52.130;5.584;2023-04-26T08:58:13;5.35;;;1.70;;
11962;SDS011;62678;52.130;5.584;2023-04-26T09:00:41;6.97;;;2.00;;
11962;SDS011;62678;52.130;5.584;2023-04-26T09:03:10;4.75;;;1.45;;
11962;SDS011;62678;52.130;5.584;2023-04-26T09:05:37;3.25;;;1.58;;
11962;SDS011;62678;52.130;5.584;2023-04-26T09:08:08;5.32;;;1.85;;
11962;SDS011;62678;52.130;5.584;2023-04-26T09:10:39;8.50;;;1.85;;
11962;SDS011;62678;52.130;5.584;2023-04-26T09:13:06;4.22;;;2.10;;
11962;SDS011;62678;52.130;5.584;2023-04-26T09:15:33;5.15;;;2.20;;
11962;SDS011;62678;52.130;5.584;2023-04-26T09:18:14;7.93;;;2.38;;
11962;SDS011;62678;52.130;5.584;2023-04-26T09:20:43;7.55;;;1.90;;
11962;SDS011;62678;52.130;5.584;2023-04-26T09:23:11;7.22;;;2.00;;
11962;SDS011;62678;52.130;5.584;2023-04-26T09:25:39;5.18;;;1.88;;
11962;SDS011;62678;52.130;5.584;2023-04-26T09:28:17;6.15;;;2.35;;
11962;SDS011;62678;52.130;5.584;2023-04-26T09:30:45;6.20;;;2.13;;
11962;SDS011;62678;52.130;5.584;2023-04-26T09:33:12;6.30;;;2.70;;
11962;SDS011;62678;52.130;5.584;2023-04-26T09:35:44;12.93;;;2.75;;
11962;SDS011;62678;52.130;5.584;2023-04-26T09:38:11;4.47;;;2.17;;
11962;SDS011;62678;52.130;5.584;2023-04-26T09:40:40;7.95;;;3.38;;
11962;SDS011;62678;52.130;5.584;2023-04-26T09:43:08;9.05;;;4.00;;
11962;SDS011;62678;52.130;5.584;2023-04-26T09:45:43;9.35;;;3.90;;
11962;SDS011;62678;52.130;5.584;2023-04-26T09:48:15;7.40;;;2.92;;
11962;SDS011;62678;52.130;5.584;2023-04-26T09:50:47;9.25;;;2.88;;
11962;SDS011;62678;52.130;5.584;2023-04-26T09:53:29;4.25;;;2.70;;
11962;SDS011;62678;52.130;5.584;2023-04-26T09:56:04;13.80;;;5.28;;
11962;SDS011;62678;52.130;5.584;2023-04-26T09:58:32;9.88;;;4.47;;
11962;SDS011;62678;52.130;5.584;2023-04-26T10:01:00;10.13;;;3.70;;
11962;SDS011;62678;52.130;5.584;2023-04-26T10:03:28;6.25;;;3.75;;
11962;SDS011;62678;52.130;5.584;2023-04-26T10:05:58;7.45;;;3.13;;
11962;SDS011;62678;52.130;5.584;2023-04-26T10:08:25;7.43;;;2.63;;
11962;SDS011;62678;52.130;5.584;2023-04-26T10:10:52;6.90;;;2.40;;
11962;SDS011;62678;52.130;5.584;2023-04-26T10:13:20;6.65;;;2.33;;
11962;SDS011;62678;52.130;5.584;2023-04-26T10:15:47;8.45;;;2.10;;
11962;SDS011;62678;52.130;5.584;2023-04-26T10:18:14;5.72;;;1.80;;
11962;SDS011;62678;52.130;5.584;2023-04-26T10:20:42;5.72;;;1.60;;
11962;SDS011;62678;52.130;5.584;2023-04-26T10:23:17;6.65;;;1.77;;
11962;SDS011;62678;52.130;5.584;2023-04-26T10:25:46;4.65;;;1.98;;
11962;SDS011;62678;52.130;5.584;2023-04-26T10:28:14;3.90;;;1.80;;
11962;SDS011;62678;52.130;5.584;2023-04-26T10:30:53;4.25;;;1.73;;
11962;SDS011;62678;52.130;5.584;2023-04-26T10:33:21;3.88;;;1.75;;
11962;SDS011;62678;52.130;5.584;2023-04-26T10:35:58;3.85;;;1.70;;
11962;SDS011;62678;52.130;5.584;2023-04-26T10:38:28;6.47;;;1.75;;
11962;SDS011;62678;52.130;5.584;2023-04-26T10:40:55;6.55;;;2.10;;
11962;SDS011;62678;52.130;5.584;2023-04-26T10:43:59;5.82;;;1.80;;
11962;SDS011;62678;52.130;5.584;2023-04-26T10:46:41;5.32;;;1.40;;
11962;SDS011;62678;52.130;5.584;2023-04-26T10:49:16;5.68;;;1.90;;
11962;SDS011;62678;52.130;5.584;2023-04-26T10:54:45;4.53;;;1.50;;
11962;SDS011;62678;52.130;5.584;2023-04-26T10:57:16;4.15;;;1.60;;
11962;SDS011;62678;52.130;5.584;2023-04-26T11:03:02;4.50;;;1.88;;
11962;SDS011;62678;52.130;5.584;2023-04-26T11:05:37;3.13;;;1.25;;
11962;SDS011;62678;52.130;5.584;2023-04-26T11:08:14;2.72;;;1.60;;
11962;SDS011;62678;52.130;5.584;2023-04-26T11:10:44;3.53;;;1.65;;
11962;SDS011;62678;52.130;5.584;2023-04-26T11:13:15;4.03;;;1.23;;
11962;SDS011;62678;52.130;5.584;2023-04-26T11:15:43;3.40;;;1.13;;
11962;SDS011;62678;52.130;5.584;2023-04-26T11:18:11;4.15;;;1.60;;
11962;SDS011;62678;52.130;5.584;2023-04-26T11:20:38;3.45;;;1.50;;
11962;SDS011;62678;52.130;5.584;2023-04-26T11:23:06;3.85;;;1.60;;
11962;SDS011;62678;52.130;5.584;2023-04-26T11:25:33;5.80;;;1.63;;
11962;SDS011;62678;52.130;5.584;2023-04-26T11:28:05;2.97;;;1.38;;
11962;SDS011;62678;52.130;5.584;2023-04-26T11:30:32;5.60;;;1.73;;
11962;SDS011;62678;52.130;5.584;2023-04-26T11:32:59;4.55;;;2.00;;
11962;SDS011;62678;52.130;5.584;2023-04-26T11:35:27;3.83;;;1.50;;
11962;SDS011;62678;52.130;5.584;2023-04-26T11:37:56;2.83;;;1.60;;
11962;SDS011;62678;52.130;5.584;2023-04-26T11:40:26;7.80;;;1.80;;
11962;SDS011;62678;52.130;5.584;2023-04-26T11:42:57;4.38;;;1.80;;
11962;SDS011;62678;52.130;5.584;2023-04-26T11:45:27;4.97;;;2.10;;
11962;SDS011;62678;52.130;5.584;2023-04-26T11:47:54;7.35;;;1.63;;
11962;SDS011;62678;52.130;5.584;2023-04-26T11:50:21;4.45;;;1.80;;
11962;SDS011;62678;52.130;5.584;2023-04-26T11:52:51;4.25;;;1.70;;
11962;SDS011;62678;52.130;5.584;2023-04-26T11:55:26;6.10;;;2.42;;
11962;SDS011;62678;52.130;5.584;2023-04-26T11:57:54;4.47;;;2.00;;
11962;SDS011;62678;52.130;5.584;2023-04-26T12:00:22;3.67;;;1.83;;
11962;SDS011;62678;52.130;5.584;2023-04-26T12:02:51;3.75;;;1.63;;
11962;SDS011;62678;52.130;5.584;2023-04-26T12:05:21;4.13;;;2.35;;
11962;SDS011;62678;52.130;5.584;2023-04-26T12:07:50;6.63;;;2.38;;
11962;SDS011;62678;52.130;5.584;2023-04-26T12:10:18;4.78;;;1.90;;
11962;SDS011;62678;52.130;5.584;2023-04-26T12:12:47;4.25;;;1.80;;
11962;SDS011;62678;52.130;5.584;2023-04-26T12:15:14;7.20;;;2.95;;
11962;SDS011;62678;52.130;5.584;2023-04-26T12:17:53;3.80;;;2.10;;
11962;SDS011;62678;52.130;5.584;2023-04-26T12:20:29;6.38;;;2.78;;
11962;SDS011;62678;52.130;5.584;2023-04-26T12:22:58;6.65;;;3.50;;
11962;SDS011;62678;52.130;5.584;2023-04-26T12:25:26;5.00;;;2.15;;
11962;SDS011;62678;52.130;5.584;2023-04-26T12:27:53;4.70;;;2.03;;
11962;SDS011;62678;52.130;5.584;2023-04-26T12:30:20;6.22;;;2.28;;
11962;SDS011;62678;52.130;5.584;2023-04-26T12:32:47;5.10;;;2.28;;
11962;SDS011;62678;52.130;5.584;2023-04-26T12:35:15;6.65;;;2.67;;
11962;SDS011;62678;52.130;5.584;2023-04-26T12:37:42;3.17;;;1.95;;
11962;SDS011;62678;52.130;5.584;2023-04-26T12:40:10;3.20;;;1.90;;
11962;SDS011;62678;52.130;5.584;2023-04-26T12:42:38;3.67;;;2.20;;
11962;SDS011;62678;52.130;5.584;2023-04-26T12:45:05;6.03;;;1.92;;
11962;SDS011;62678;52.130;5.584;2023-04-26T12:47:33;8.10;;;2.42;;
11962;SDS011;62678;52.130;5.584;2023-04-26T12:49:59;6.03;;;2.30;;
11962;SDS011;62678;52.130;5.584;2023-04-26T12:52:28;6.80;;;2.20;;
11962;SDS011;62678;52.130;5.584;2023-04-26T12:54:56;4.78;;;2.00;;
11962;SDS011;62678;52.130;5.584;2023-04-26T12:57:23;3.80;;;2.22;;
11962;SDS011;62678;52.130;5.584;2023-04-26T12:59:49;7.85;;;2.92;;
11962;SDS011;62678;52.130;5.584;2023-04-26T13:02:16;6.65;;;2.47;;
11962;SDS011;62678;52.130;5.584;2023-04-26T13:04:43;4.47;;;2.40;;
11962;SDS011;62678;52.130;5.584;2023-04-26T13:07:10;4.38;;;2.17;;
11962;SDS011;62678;52.130;5.584;2023-04-26T13:09:39;5.18;;;2.20;;
11962;SDS011;62678;52.130;5.584;2023-04-26T13:12:05;5.03;;;2.55;;
11962;SDS011;62678;52.130;5.584;2023-04-26T13:14:32;3.88;;;2.20;;
11962;SDS011;62678;52.130;5.584;2023-04-26T13:16:59;6.07;;;1.98;;
11962;SDS011;62678;52.130;5.584;2023-04-26T13:19:26;6.80;;;2.00;;
11962;SDS011;62678;52.130;5.584;2023-04-26T13:21:53;3.03;;;1.83;;
11962;SDS011;62678;52.130;5.584;2023-04-26T13:24:20;2.47;;;1.60;;
11962;SDS011;62678;52.130;5.584;2023-04-26T13:26:48;3.05;;;1.42;;
11962;SDS011;62678;52.130;5.584;2023-04-26T13:29:15;4.95;;;2.15;;
11962;SDS011;62678;52.130;5.584;2023-04-26T13:31:41;5.60;;;2.45;;
11962;SDS011;62678;52.130;5.584;2023-04-26T13:34:08;5.10;;;2.00;;
11962;SDS011;62678;52.130;5.584;2023-04-26T13:36:37;3.20;;;2.08;;
11962;SDS011;62678;52.130;5.584;2023-04-26T13:39:04;3.65;;;2.17;;
11962;SDS011;62678;52.130;5.584;2023-04-26T13:41:31;5.07;;;2.35;;
11962;SDS011;62678;52.130;5.584;2023-04-26T13:44:00;3.10;;;1.92;;
11962;SDS011;62678;52.130;5.584;2023-04-26T13:46:28;4.45;;;2.20;;
11962;SDS011;62678;52.130;5.584;2023-04-26T13:48:55;3.83;;;2.00;;
11962;SDS011;62678;52.130;5.584;2023-04-26T13:51:22;5.35;;;2.40;;
11962;SDS011;62678;52.130;5.584;2023-04-26T13:53:52;4.50;;;2.20;;
11962;SDS011;62678;52.130;5.584;2023-04-26T13:56:19;3.42;;;1.92;;
11962;SDS011;62678;52.130;5.584;2023-04-26T13:58:45;6.50;;;2.10;;
11962;SDS011;62678;52.130;5.584;2023-04-26T14:01:15;5.50;;;3.05;;
11962;SDS011;62678;52.130;5.584;2023-04-26T14:03:42;6.55;;;2.95;;
11962;SDS011;62678;52.130;5.584;2023-04-26T14:06:09;8.15;;;2.60;;
11962;SDS011;62678;52.130;5.584;2023-04-26T14:08:37;3.70;;;2.35;;
11962;SDS011;62678;52.130;5.584;2023-04-26T14:11:04;4.38;;;2.80;;
11962;SDS011;62678;52.130;5.584;2023-04-26T14:13:31;5.90;;;2.50;;
11962;SDS011;62678;52.130;5.584;2023-04-26T14:15:58;5.38;;;2.92;;
11962;SDS011;62678;52.130;5.584;2023-04-26T14:18:27;5.28;;;2.90;;
11962;SDS011;62678;52.130;5.584;2023-04-26T14:20:53;7.13;;;3.58;;
11962;SDS011;62678;52.130;5.584;2023-04-26T14:23:20;5.03;;;2.55;;
11962;SDS011;62678;52.130;5.584;2023-04-26T14:25:49;6.65;;;3.33;;
11962;SDS011;62678;52.130;5.584;2023-04-26T14:28:17;3.78;;;2.38;;
11962;SDS011;62678;52.130;5.584;2023-04-26T14:30:43;10.48;;;5.82;;
11962;SDS011;62678;52.130;5.584;2023-04-26T14:33:11;5.25;;;2.45;;
11962;SDS011;62678;52.130;5.584;2023-04-26T14:35:39;2.33;;;2.00;;
11962;SDS011;62678;52.130;5.584;2023-04-26T14:38:08;3.63;;;3.00;;
11962;SDS011;62678;52.130;5.584;2023-04-26T14:40:35;3.10;;;2.28;;
11962;SDS011;62678;52.130;5.584;2023-04-26T14:43:02;5.75;;;2.60;;
11962;SDS011;62678;52.130;5.584;2023-04-26T14:45:29;6.32;;;2.40;;
11962;SDS011;62678;52.130;5.584;2023-04-26T14:47:58;6.20;;;2.78;;